Time Latitude Longitude Accuracy (66% radius in meters) Altitude (meters) Speed (km/hour) Bearing (degrees) Battery (%) GPS flag
07:14:02 57.203649 60.118588 3 333 3.3003785610199 110.19999694824 48 1 delete
07:13:59 57.203686 60.118405 3 333 3.9008972644806 113.59999847412 48 1 delete
07:13:56 57.203736 60.118236 3 333 3.6124782562256 118.5 48 1 delete
07:13:53 57.203781 60.118072 4 333 3.5700559616089 97.800003051758 48 1 delete
07:13:50 57.203790 60.117895 3 333 3.7913188934326 81.800003051758 48 1 delete
07:13:47 57.203770 60.117709 3 332 3.8550226688385 73.900001525879 48 1 delete
07:13:44 57.203732 60.117534 3 330 3.7553296089172 69 48 1 delete
07:13:41 57.203694 60.117374 3 330 3.2799999713898 72.300003051758 48 1 delete
07:13:38 57.203656 60.117221 3 330 3.2518610954285 73 48 1 delete
07:13:35 57.203640 60.117049 3 330 3.3235673904419 78.199996948242 48 1 delete
07:13:31 57.203629 60.116844 3 329 2.8082911968231 83.599998474121 48 1 delete
07:13:27 57.203618 60.116668 3 327 2.9110996723175 83.300003051758 48 1 delete
07:13:23 57.203612 60.116491 3 326 3.1696846485138 88.599998474121 48 1 delete
07:13:19 57.203590 60.116285 3 326 2.7950849533081 79.599998474121 48 1 delete
07:13:15 57.203565 60.116119 3 325 2.7324714660645 62.599998474121 48 1 delete
07:13:11 57.203508 60.115955 3 322 4.2104272842407 52 48 1 delete
07:13:08 57.203420 60.115800 3 322 4.5905337333679 39.900001525879 48 1 delete
07:13:05 57.203326 60.115649 3 321 4.865439414978 43.099998474121 48 1 delete
07:13:00 57.203191 60.115333 3 322 4.6424236297607 62 48 1 delete
07:12:57 57.203135 60.115141 3 323 4.0944471359253 69.599998474121 48 1 delete
07:12:52 57.203127 60.114914 3 325 1.6080111265182 151.30000305176 48 1 delete
07:12:46 57.203229 60.114857 3 322 2.3082461357117 160.39999389648 48 1 delete
07:12:34 57.203353 60.114562 3 321 1.4235167503357 94.699996948242 48 1 delete
07:12:26 57.203422 60.114431 3 327 0.65741914510727 176.19999694824 48 1 delete
07:12:21 57.203509 60.114495 3 327 2.4789111614227 230.60000610352 48 1 delete
07:12:07 57.203597 60.114624 3 320 1.1621100902557 135.60000610352 48 1 delete
07:12:00 57.203683 60.114552 3 322 0.96540147066116 170.30000305176 48 1 delete
07:11:49 57.203763 60.114632 3 322 1.2465151548386 197.30000305176 48 1 delete
07:11:43 57.203853 60.114617 3 321 1.5783535242081 165.5 48 1 delete
07:11:38 57.203945 60.114610 4 321 1.9609181880951 171.69999694824 48 1 delete
07:11:33 57.204042 60.114561 3 321 1.5546704530716 231.30000305176 48 1 delete
07:11:28 57.204107 60.114678 3 318 2.0287187099457 220.60000610352 48 1 delete
07:11:24 57.204178 60.114806 3 319 3.5887184143066 231 48 1 delete
07:11:21 57.204242 60.114934 3 319 2.3807773590088 225 48 1 delete
07:11:14 57.204341 60.114977 3 316 2.4520397186279 171.60000610352 48 1 delete
07:11:09 57.204447 60.114991 3 313 1.2593649625778 199 48 1 delete
07:11:02 57.204538 60.114987 3 312 1.2205326557159 167.60000610352 48 1 delete
07:10:56 57.204623 60.114915 3 311 2.09880900383 171.19999694824 48 1 delete
07:10:47 57.204708 60.114856 3 309 1.5402921438217 87.900001525879 48 1 delete
07:10:42 57.204708 60.114668 3 308 3.1740510463715 84.099998474121 48 1 delete
07:10:39 57.204697 60.114500 3 309 2.9387414455414 80 48 1 delete
07:10:35 57.204712 60.114313 3 311 1.9964218139648 165.10000610352 48 1 delete
07:10:29 57.204808 60.114266 3 310 2.9227726459503 205.69999694824 48 1 delete
07:10:26 57.204895 60.114326 4 309 3.4462299346924 197.5 48 1 delete
07:10:22 57.205006 60.114342 3 308 2.2339425086975 141.89999389648 48 1 delete
07:10:18 57.205082 60.114244 3 306 1.3984633684158 167.80000305176 48 1 delete
07:10:12 57.205125 60.114095 3 304 2.4007499217987 92.400001525879 48 1 delete
07:10:01 57.205125 60.113893 3 302 1.5305228233337 128.30000305176 48 1 delete
07:09:55 57.205171 60.113745 3 301 2.6208584308624 113 48 1 delete
07:09:50 57.205210 60.113564 3 301 2.0436487197876 108.5 48 1 delete